sensor_id;sensor_type;location;lat;lon;timestamp;P1;durP1;ratioP1;P2;durP2;ratioP2
70010;SDS011;59543;37.950;-122.338;2023-05-07T00:00:58;4.00;;;0.52;;
70010;SDS011;59543;37.950;-122.338;2023-05-07T00:03:25;4.00;;;1.10;;
70010;SDS011;59543;37.950;-122.338;2023-05-07T00:05:51;1.55;;;0.50;;
70010;SDS011;59543;37.950;-122.338;2023-05-07T00:08:20;4.68;;;0.60;;
70010;SDS011;59543;37.950;-122.338;2023-05-07T00:10:47;4.15;;;1.13;;
70010;SDS011;59543;37.950;-122.338;2023-05-07T00:13:13;4.32;;;0.90;;
70010;SDS011;59543;37.950;-122.338;2023-05-07T00:15:39;2.95;;;0.90;;
70010;SDS011;59543;37.950;-122.338;2023-05-07T00:18:05;3.65;;;0.85;;
70010;SDS011;59543;37.950;-122.338;2023-05-07T00:20:32;5.30;;;0.70;;
70010;SDS011;59543;37.950;-122.338;2023-05-07T00:22:58;4.40;;;0.68;;
70010;SDS011;59543;37.950;-122.338;2023-05-07T00:25:24;1.85;;;0.30;;
70010;SDS011;59543;37.950;-122.338;2023-05-07T00:27:50;4.13;;;0.80;;
70010;SDS011;59543;37.950;-122.338;2023-05-07T00:30:16;3.47;;;0.70;;
70010;SDS011;59543;37.950;-122.338;2023-05-07T00:32:43;4.32;;;0.93;;
70010;SDS011;59543;37.950;-122.338;2023-05-07T00:35:10;2.95;;;0.70;;
70010;SDS011;59543;37.950;-122.338;2023-05-07T00:37:37;4.40;;;1.20;;
70010;SDS011;59543;37.950;-122.338;2023-05-07T00:40:03;2.10;;;0.65;;
70010;SDS011;59543;37.950;-122.338;2023-05-07T00:42:32;4.82;;;1.50;;
70010;SDS011;59543;37.950;-122.338;2023-05-07T00:44:58;5.22;;;1.60;;
70010;SDS011;59543;37.950;-122.338;2023-05-07T00:47:25;5.25;;;1.30;;
70010;SDS011;59543;37.950;-122.338;2023-05-07T00:49:51;4.47;;;1.10;;
70010;SDS011;59543;37.950;-122.338;2023-05-07T00:52:18;2.05;;;0.70;;
70010;SDS011;59543;37.950;-122.338;2023-05-07T00:54:47;3.75;;;1.67;;
70010;SDS011;59543;37.950;-122.338;2023-05-07T00:57:13;3.40;;;0.80;;
70010;SDS011;59543;37.950;-122.338;2023-05-07T00:59:41;6.20;;;0.70;;
70010;SDS011;59543;37.950;-122.338;2023-05-07T01:02:07;4.95;;;1.60;;
70010;SDS011;59543;37.950;-122.338;2023-05-07T01:04:33;4.30;;;1.00;;
70010;SDS011;59543;37.950;-122.338;2023-05-07T01:07:00;3.65;;;0.90;;
70010;SDS011;59543;37.950;-122.338;2023-05-07T01:09:27;2.92;;;0.73;;
70010;SDS011;59543;37.950;-122.338;2023-05-07T01:11:54;3.42;;;0.90;;
70010;SDS011;59543;37.950;-122.338;2023-05-07T01:14:22;3.75;;;1.02;;
70010;SDS011;59543;37.950;-122.338;2023-05-07T01:16:49;5.90;;;1.05;;
70010;SDS011;59543;37.950;-122.338;2023-05-07T01:19:17;2.88;;;1.10;;
70010;SDS011;59543;37.950;-122.338;2023-05-07T01:21:45;4.80;;;0.77;;
70010;SDS011;59543;37.950;-122.338;2023-05-07T01:24:13;4.13;;;0.95;;
70010;SDS011;59543;37.950;-122.338;2023-05-07T01:26:41;2.08;;;0.73;;
70010;SDS011;59543;37.950;-122.338;2023-05-07T01:29:09;3.35;;;1.00;;
70010;SDS011;59543;37.950;-122.338;2023-05-07T01:31:35;2.67;;;0.82;;
70010;SDS011;59543;37.950;-122.338;2023-05-07T01:34:02;5.05;;;1.00;;
70010;SDS011;59543;37.950;-122.338;2023-05-07T01:36:32;2.53;;;1.00;;
70010;SDS011;59543;37.950;-122.338;2023-05-07T01:39:00;1.88;;;0.63;;
70010;SDS011;59543;37.950;-122.338;2023-05-07T01:41:27;4.60;;;1.10;;
70010;SDS011;59543;37.950;-122.338;2023-05-07T01:43:54;3.80;;;1.10;;
70010;SDS011;59543;37.950;-122.338;2023-05-07T01:46:20;7.82;;;1.38;;
70010;SDS011;59543;37.950;-122.338;2023-05-07T01:48:47;3.15;;;0.80;;
70010;SDS011;59543;37.950;-122.338;2023-05-07T01:51:14;4.90;;;1.10;;
70010;SDS011;59543;37.950;-122.338;2023-05-07T01:53:40;3.15;;;0.80;;
70010;SDS011;59543;37.950;-122.338;2023-05-07T01:56:08;3.63;;;1.00;;
70010;SDS011;59543;37.950;-122.338;2023-05-07T01:58:34;4.32;;;0.88;;
70010;SDS011;59543;37.950;-122.338;2023-05-07T02:01:01;3.13;;;0.88;;
70010;SDS011;59543;37.950;-122.338;2023-05-07T02:03:27;3.60;;;1.05;;
70010;SDS011;59543;37.950;-122.338;2023-05-07T02:05:53;4.07;;;0.90;;
70010;SDS011;59543;37.950;-122.338;2023-05-07T02:08:19;5.20;;;0.95;;
70010;SDS011;59543;37.950;-122.338;2023-05-07T02:10:45;2.83;;;0.90;;
70010;SDS011;59543;37.950;-122.338;2023-05-07T02:13:12;5.63;;;1.30;;
70010;SDS011;59543;37.950;-122.338;2023-05-07T02:15:38;3.65;;;0.90;;
70010;SDS011;59543;37.950;-122.338;2023-05-07T02:18:05;4.30;;;0.95;;
70010;SDS011;59543;37.950;-122.338;2023-05-07T02:20:34;4.80;;;0.82;;
70010;SDS011;59543;37.950;-122.338;2023-05-07T02:23:01;4.63;;;1.10;;
70010;SDS011;59543;37.950;-122.338;2023-05-07T02:25:27;6.15;;;1.13;;
70010;SDS011;59543;37.950;-122.338;2023-05-07T02:27:54;5.65;;;1.55;;
70010;SDS011;59543;37.950;-122.338;2023-05-07T02:30:20;7.45;;;1.10;;
70010;SDS011;59543;37.950;-122.338;2023-05-07T02:32:47;4.13;;;1.30;;
70010;SDS011;59543;37.950;-122.338;2023-05-07T02:35:13;2.58;;;1.00;;
70010;SDS011;59543;37.950;-122.338;2023-05-07T02:37:39;4.47;;;1.20;;
70010;SDS011;59543;37.950;-122.338;2023-05-07T02:40:05;6.70;;;1.30;;
70010;SDS011;59543;37.950;-122.338;2023-05-07T02:42:32;3.47;;;1.02;;
70010;SDS011;59543;37.950;-122.338;2023-05-07T02:44:58;4.43;;;1.30;;
70010;SDS011;59543;37.950;-122.338;2023-05-07T02:47:25;3.55;;;1.25;;
70010;SDS011;59543;37.950;-122.338;2023-05-07T02:49:57;3.05;;;1.10;;
70010;SDS011;59543;37.950;-122.338;2023-05-07T02:52:23;4.28;;;1.35;;
70010;SDS011;59543;37.950;-122.338;2023-05-07T02:54:49;3.58;;;1.30;;
70010;SDS011;59543;37.950;-122.338;2023-05-07T02:57:16;4.70;;;1.58;;
70010;SDS011;59543;37.950;-122.338;2023-05-07T02:59:42;6.50;;;1.23;;
70010;SDS011;59543;37.950;-122.338;2023-05-07T03:02:08;2.15;;;1.00;;
70010;SDS011;59543;37.950;-122.338;2023-05-07T03:04:35;5.28;;;1.50;;
70010;SDS011;59543;37.950;-122.338;2023-05-07T03:07:01;4.93;;;1.00;;
70010;SDS011;59543;37.950;-122.338;2023-05-07T03:09:28;6.20;;;1.30;;
70010;SDS011;59543;37.950;-122.338;2023-05-07T03:11:54;3.85;;;1.33;;
70010;SDS011;59543;37.950;-122.338;2023-05-07T03:14:20;5.70;;;1.45;;
70010;SDS011;59543;37.950;-122.338;2023-05-07T03:16:46;4.25;;;1.17;;
70010;SDS011;59543;37.950;-122.338;2023-05-07T03:19:13;2.90;;;1.15;;
70010;SDS011;59543;37.950;-122.338;2023-05-07T03:21:39;4.93;;;1.52;;
70010;SDS011;59543;37.950;-122.338;2023-05-07T03:24:05;9.23;;;1.40;;
70010;SDS011;59543;37.950;-122.338;2023-05-07T03:26:31;3.90;;;1.50;;
70010;SDS011;59543;37.950;-122.338;2023-05-07T03:28:58;7.72;;;1.42;;
70010;SDS011;59543;37.950;-122.338;2023-05-07T03:31:24;4.03;;;1.40;;
70010;SDS011;59543;37.950;-122.338;2023-05-07T03:33:54;2.80;;;1.00;;
70010;SDS011;59543;37.950;-122.338;2023-05-07T03:36:21;4.25;;;1.00;;
70010;SDS011;59543;37.950;-122.338;2023-05-07T03:38:48;5.57;;;1.45;;
70010;SDS011;59543;37.950;-122.338;2023-05-07T03:41:15;3.90;;;1.10;;
70010;SDS011;59543;37.950;-122.338;2023-05-07T03:43:41;2.85;;;1.30;;
70010;SDS011;59543;37.950;-122.338;2023-05-07T03:46:07;4.13;;;1.23;;
70010;SDS011;59543;37.950;-122.338;2023-05-07T03:48:34;4.13;;;1.15;;
70010;SDS011;59543;37.950;-122.338;2023-05-07T03:51:00;3.10;;;1.10;;
70010;SDS011;59543;37.950;-122.338;2023-05-07T03:53:26;7.22;;;1.58;;
70010;SDS011;59543;37.950;-122.338;2023-05-07T03:55:53;6.93;;;1.30;;
70010;SDS011;59543;37.950;-122.338;2023-05-07T03:58:19;5.72;;;1.50;;
70010;SDS011;59543;37.950;-122.338;2023-05-07T04:00:45;4.28;;;1.38;;
70010;SDS011;59543;37.950;-122.338;2023-05-07T04:03:11;8.70;;;1.40;;
70010;SDS011;59543;37.950;-122.338;2023-05-07T04:05:37;5.32;;;1.60;;
70010;SDS011;59543;37.950;-122.338;2023-05-07T04:08:04;7.28;;;1.45;;
70010;SDS011;59543;37.950;-122.338;2023-05-07T04:10:30;6.75;;;1.42;;
70010;SDS011;59543;37.950;-122.338;2023-05-07T04:12:57;7.57;;;1.65;;
70010;SDS011;59543;37.950;-122.338;2023-05-07T04:15:23;10.18;;;1.92;;
70010;SDS011;59543;37.950;-122.338;2023-05-07T04:17:49;7.32;;;1.83;;
70010;SDS011;59543;37.950;-122.338;2023-05-07T04:20:16;6.60;;;2.28;;
70010;SDS011;59543;37.950;-122.338;2023-05-07T04:22:43;6.97;;;2.22;;
70010;SDS011;59543;37.950;-122.338;2023-05-07T04:25:09;5.65;;;1.95;;
70010;SDS011;59543;37.950;-122.338;2023-05-07T04:27:35;8.23;;;2.10;;
70010;SDS011;59543;37.950;-122.338;2023-05-07T04:30:03;7.75;;;2.10;;
70010;SDS011;59543;37.950;-122.338;2023-05-07T04:32:29;8.07;;;1.80;;
70010;SDS011;59543;37.950;-122.338;2023-05-07T04:34:56;6.93;;;1.60;;
70010;SDS011;59543;37.950;-122.338;2023-05-07T04:37:22;9.02;;;2.15;;
70010;SDS011;59543;37.950;-122.338;2023-05-07T04:39:48;5.03;;;1.83;;
70010;SDS011;59543;37.950;-122.338;2023-05-07T04:42:18;7.20;;;2.05;;
70010;SDS011;59543;37.950;-122.338;2023-05-07T04:44:44;7.32;;;2.13;;
70010;SDS011;59543;37.950;-122.338;2023-05-07T04:47:11;8.48;;;2.70;;
70010;SDS011;59543;37.950;-122.338;2023-05-07T04:49:38;9.82;;;2.42;;
70010;SDS011;59543;37.950;-122.338;2023-05-07T04:52:04;9.48;;;2.10;;
70010;SDS011;59543;37.950;-122.338;2023-05-07T04:54:30;8.05;;;2.65;;
70010;SDS011;59543;37.950;-122.338;2023-05-07T04:56:57;12.00;;;3.28;;
70010;SDS011;59543;37.950;-122.338;2023-05-07T04:59:23;7.90;;;3.65;;
70010;SDS011;59543;37.950;-122.338;2023-05-07T05:01:49;8.20;;;2.78;;
70010;SDS011;59543;37.950;-122.338;2023-05-07T05:04:15;9.25;;;1.90;;
70010;SDS011;59543;37.950;-122.338;2023-05-07T05:06:41;5.60;;;1.85;;
70010;SDS011;59543;37.950;-122.338;2023-05-07T05:09:08;4.45;;;1.65;;
70010;SDS011;59543;37.950;-122.338;2023-05-07T05:11:34;5.65;;;1.55;;
70010;SDS011;59543;37.950;-122.338;2023-05-07T05:14:00;4.57;;;1.35;;
70010;SDS011;59543;37.950;-122.338;2023-05-07T05:16:27;4.93;;;1.48;;
70010;SDS011;59543;37.950;-122.338;2023-05-07T05:18:53;6.70;;;2.03;;
70010;SDS011;59543;37.950;-122.338;2023-05-07T05:21:20;7.53;;;1.50;;
70010;SDS011;59543;37.950;-122.338;2023-05-07T05:23:46;7.15;;;1.95;;
70010;SDS011;59543;37.950;-122.338;2023-05-07T05:26:12;5.47;;;1.70;;
70010;SDS011;59543;37.950;-122.338;2023-05-07T05:28:39;5.40;;;1.77;;
70010;SDS011;59543;37.950;-122.338;2023-05-07T05:31:05;6.18;;;1.65;;
70010;SDS011;59543;37.950;-122.338;2023-05-07T05:33:31;5.82;;;1.65;;
70010;SDS011;59543;37.950;-122.338;2023-05-07T05:35:58;6.00;;;1.60;;
70010;SDS011;59543;37.950;-122.338;2023-05-07T05:38:24;7.28;;;1.98;;
70010;SDS011;59543;37.950;-122.338;2023-05-07T05:40:51;6.30;;;1.33;;
70010;SDS011;59543;37.950;-122.338;2023-05-07T05:43:17;9.13;;;1.80;;
70010;SDS011;59543;37.950;-122.338;2023-05-07T05:45:43;6.93;;;2.00;;
70010;SDS011;59543;37.950;-122.338;2023-05-07T05:48:09;6.80;;;1.92;;
70010;SDS011;59543;37.950;-122.338;2023-05-07T05:50:36;7.53;;;1.77;;
70010;SDS011;59543;37.950;-122.338;2023-05-07T05:53:02;9.40;;;1.80;;
70010;SDS011;59543;37.950;-122.338;2023-05-07T05:55:28;9.27;;;2.00;;
70010;SDS011;59543;37.950;-122.338;2023-05-07T05:57:55;7.55;;;1.80;;
70010;SDS011;59543;37.950;-122.338;2023-05-07T06:00:22;7.00;;;2.03;;
70010;SDS011;59543;37.950;-122.338;2023-05-07T06:02:48;5.80;;;1.80;;
70010;SDS011;59543;37.950;-122.338;2023-05-07T06:05:14;10.48;;;1.95;;
70010;SDS011;59543;37.950;-122.338;2023-05-07T06:07:41;10.02;;;1.83;;
70010;SDS011;59543;37.950;-122.338;2023-05-07T06:10:07;6.93;;;1.58;;
70010;SDS011;59543;37.950;-122.338;2023-05-07T06:12:33;8.02;;;1.88;;
70010;SDS011;59543;37.950;-122.338;2023-05-07T06:15:00;6.63;;;1.73;;
70010;SDS011;59543;37.950;-122.338;2023-05-07T06:17:26;9.45;;;2.33;;
70010;SDS011;59543;37.950;-122.338;2023-05-07T06:19:53;5.18;;;1.60;;
70010;SDS011;59543;37.950;-122.338;2023-05-07T06:22:19;11.25;;;2.67;;
70010;SDS011;59543;37.950;-122.338;2023-05-07T06:24:45;12.30;;;2.42;;
70010;SDS011;59543;37.950;-122.338;2023-05-07T06:27:12;5.25;;;1.70;;
70010;SDS011;59543;37.950;-122.338;2023-05-07T06:29:38;6.03;;;1.67;;
70010;SDS011;59543;37.950;-122.338;2023-05-07T06:32:11;12.90;;;2.53;;
70010;SDS011;59543;37.950;-122.338;2023-05-07T06:34:38;9.52;;;2.42;;
70010;SDS011;59543;37.950;-122.338;2023-05-07T06:37:06;10.02;;;2.72;;
70010;SDS011;59543;37.950;-122.338;2023-05-07T06:39:32;10.73;;;2.60;;
70010;SDS011;59543;37.950;-122.338;2023-05-07T06:41:59;9.70;;;2.63;;
70010;SDS011;59543;37.950;-122.338;2023-05-07T06:44:27;6.90;;;2.40;;
70010;SDS011;59543;37.950;-122.338;2023-05-07T06:46:53;7.07;;;2.00;;
70010;SDS011;59543;37.950;-122.338;2023-05-07T06:49:19;9.05;;;2.10;;
70010;SDS011;59543;37.950;-122.338;2023-05-07T06:51:46;13.63;;;2.70;;
70010;SDS011;59543;37.950;-122.338;2023-05-07T06:54:12;12.00;;;3.05;;
70010;SDS011;59543;37.950;-122.338;2023-05-07T06:56:38;13.52;;;3.30;;
70010;SDS011;59543;37.950;-122.338;2023-05-07T06:59:05;8.38;;;2.70;;
70010;SDS011;59543;37.950;-122.338;2023-05-07T07:01:32;8.02;;;2.58;;
70010;SDS011;59543;37.950;-122.338;2023-05-07T07:03:58;5.88;;;2.20;;
70010;SDS011;59543;37.950;-122.338;2023-05-07T07:06:25;9.38;;;2.38;;
70010;SDS011;59543;37.950;-122.338;2023-05-07T07:08:52;7.88;;;2.53;;
70010;SDS011;59543;37.950;-122.338;2023-05-07T07:11:18;15.85;;;3.30;;
70010;SDS011;59543;37.950;-122.338;2023-05-07T07:13:44;11.90;;;2.90;;
70010;SDS011;59543;37.950;-122.338;2023-05-07T07:16:10;9.13;;;3.03;;
70010;SDS011;59543;37.950;-122.338;2023-05-07T07:18:37;9.88;;;2.83;;
70010;SDS011;59543;37.950;-122.338;2023-05-07T07:21:03;9.68;;;2.13;;
70010;SDS011;59543;37.950;-122.338;2023-05-07T07:23:29;12.82;;;3.45;;
70010;SDS011;59543;37.950;-122.338;2023-05-07T07:25:56;12.77;;;2.97;;
70010;SDS011;59543;37.950;-122.338;2023-05-07T07:28:22;9.30;;;2.80;;
70010;SDS011;59543;37.950;-122.338;2023-05-07T07:30:48;12.00;;;3.90;;
70010;SDS011;59543;37.950;-122.338;2023-05-07T07:33:15;9.80;;;3.38;;
70010;SDS011;59543;37.950;-122.338;2023-05-07T07:35:41;15.35;;;3.53;;
70010;SDS011;59543;37.950;-122.338;2023-05-07T07:38:07;9.88;;;3.50;;
70010;SDS011;59543;37.950;-122.338;2023-05-07T07:40:37;10.25;;;3.60;;
70010;SDS011;59543;37.950;-122.338;2023-05-07T07:43:03;15.52;;;4.15;;
70010;SDS011;59543;37.950;-122.338;2023-05-07T07:45:30;12.90;;;3.50;;
70010;SDS011;59543;37.950;-122.338;2023-05-07T07:47:56;13.73;;;3.63;;
70010;SDS011;59543;37.950;-122.338;2023-05-07T07:50:22;14.88;;;3.80;;
70010;SDS011;59543;37.950;-122.338;2023-05-07T07:52:48;15.52;;;3.80;;
70010;SDS011;59543;37.950;-122.338;2023-05-07T07:55:15;10.90;;;3.28;;
70010;SDS011;59543;37.950;-122.338;2023-05-07T07:57:46;15.32;;;4.25;;
70010;SDS011;59543;37.950;-122.338;2023-05-07T08:00:12;13.55;;;3.65;;
70010;SDS011;59543;37.950;-122.338;2023-05-07T08:02:39;16.80;;;3.45;;
70010;SDS011;59543;37.950;-122.338;2023-05-07T08:05:05;9.27;;;2.72;;
70010;SDS011;59543;37.950;-122.338;2023-05-07T08:07:32;10.55;;;3.22;;
70010;SDS011;59543;37.950;-122.338;2023-05-07T08:09:58;12.15;;;2.70;;
70010;SDS011;59543;37.950;-122.338;2023-05-07T08:12:24;14.02;;;3.22;;
70010;SDS011;59543;37.950;-122.338;2023-05-07T08:14:50;11.63;;;2.83;;
70010;SDS011;59543;37.950;-122.338;2023-05-07T08:17:17;12.93;;;3.25;;
70010;SDS011;59543;37.950;-122.338;2023-05-07T08:19:43;11.68;;;4.15;;
70010;SDS011;59543;37.950;-122.338;2023-05-07T08:22:10;7.82;;;2.63;;
70010;SDS011;59543;37.950;-122.338;2023-05-07T08:24:37;12.35;;;2.88;;
70010;SDS011;59543;37.950;-122.338;2023-05-07T08:27:03;8.95;;;3.17;;
70010;SDS011;59543;37.950;-122.338;2023-05-07T08:29:29;16.55;;;5.03;;
70010;SDS011;59543;37.950;-122.338;2023-05-07T08:31:55;15.75;;;4.60;;
70010;SDS011;59543;37.950;-122.338;2023-05-07T08:34:22;17.73;;;4.55;;
70010;SDS011;59543;37.950;-122.338;2023-05-07T08:36:48;11.93;;;4.60;;
70010;SDS011;59543;37.950;-122.338;2023-05-07T08:39:17;14.77;;;4.57;;
70010;SDS011;59543;37.950;-122.338;2023-05-07T08:41:44;11.57;;;3.80;;
70010;SDS011;59543;37.950;-122.338;2023-05-07T08:44:13;9.40;;;3.20;;
70010;SDS011;59543;37.950;-122.338;2023-05-07T08:46:43;13.73;;;4.00;;
70010;SDS011;59543;37.950;-122.338;2023-05-07T08:49:13;9.77;;;3.20;;
70010;SDS011;59543;37.950;-122.338;2023-05-07T08:51:41;9.98;;;3.17;;
70010;SDS011;59543;37.950;-122.338;2023-05-07T08:54:07;13.45;;;3.65;;
70010;SDS011;59543;37.950;-122.338;2023-05-07T08:56:37;16.45;;;3.42;;
70010;SDS011;59543;37.950;-122.338;2023-05-07T08:59:05;9.13;;;2.90;;
70010;SDS011;59543;37.950;-122.338;2023-05-07T09:01:31;13.98;;;2.90;;
70010;SDS011;59543;37.950;-122.338;2023-05-07T09:03:57;15.27;;;3.00;;
70010;SDS011;59543;37.950;-122.338;2023-05-07T09:06:24;11.60;;;3.28;;
70010;SDS011;59543;37.950;-122.338;2023-05-07T09:08:50;11.27;;;3.13;;
70010;SDS011;59543;37.950;-122.338;2023-05-07T09:11:22;10.73;;;3.47;;
70010;SDS011;59543;37.950;-122.338;2023-05-07T09:13:53;13.27;;;3.42;;
70010;SDS011;59543;37.950;-122.338;2023-05-07T09:16:26;17.92;;;3.40;;
70010;SDS011;59543;37.950;-122.338;2023-05-07T09:18:54;9.90;;;2.75;;
70010;SDS011;59543;37.950;-122.338;2023-05-07T09:21:23;13.00;;;3.40;;
70010;SDS011;59543;37.950;-122.338;2023-05-07T09:23:53;12.27;;;3.40;;
70010;SDS011;59543;37.950;-122.338;2023-05-07T09:26:21;11.05;;;2.65;;
70010;SDS011;59543;37.950;-122.338;2023-05-07T09:28:48;10.85;;;2.90;;
70010;SDS011;59543;37.950;-122.338;2023-05-07T09:31:14;11.35;;;2.90;;
70010;SDS011;59543;37.950;-122.338;2023-05-07T09:33:41;10.20;;;2.67;;
70010;SDS011;59543;37.950;-122.338;2023-05-07T09:36:08;14.48;;;3.15;;
70010;SDS011;59543;37.950;-122.338;2023-05-07T09:38:35;9.68;;;2.45;;
70010;SDS011;59543;37.950;-122.338;2023-05-07T09:43:35;8.50;;;2.53;;
70010;SDS011;59543;37.950;-122.338;2023-05-07T09:46:05;12.00;;;2.92;;
70010;SDS011;59543;37.950;-122.338;2023-05-07T09:48:39;16.17;;;3.25;;
70010;SDS011;59543;37.950;-122.338;2023-05-07T09:53:56;15.63;;;3.58;;
70010;SDS011;59543;37.950;-122.338;2023-05-07T09:56:23;11.82;;;2.63;;
70010;SDS011;59543;37.950;-122.338;2023-05-07T09:58:51;17.70;;;3.45;;
70010;SDS011;59543;37.950;-122.338;2023-05-07T10:01:19;12.63;;;2.85;;
70010;SDS011;59543;37.950;-122.338;2023-05-07T10:03:47;18.25;;;3.45;;
70010;SDS011;59543;37.950;-122.338;2023-05-07T10:06:15;10.65;;;2.70;;
70010;SDS011;59543;37.950;-122.338;2023-05-07T10:08:43;9.75;;;2.92;;
70010;SDS011;59543;37.950;-122.338;2023-05-07T10:11:09;14.85;;;2.60;;
70010;SDS011;59543;37.950;-122.338;2023-05-07T10:13:36;14.77;;;3.15;;
70010;SDS011;59543;37.950;-122.338;2023-05-07T10:16:06;14.98;;;3.60;;
70010;SDS011;59543;37.950;-122.338;2023-05-07T10:18:32;16.15;;;3.38;;
70010;SDS011;59543;37.950;-122.338;2023-05-07T10:21:18;15.25;;;3.22;;
70010;SDS011;59543;37.950;-122.338;2023-05-07T10:26:20;9.25;;;3.05;;
70010;SDS011;59543;37.950;-122.338;2023-05-07T10:28:49;15.32;;;3.63;;
70010;SDS011;59543;37.950;-122.338;2023-05-07T10:33:49;14.30;;;3.00;;
70010;SDS011;59543;37.950;-122.338;2023-05-07T10:36:18;10.68;;;3.20;;
70010;SDS011;59543;37.950;-122.338;2023-05-07T10:38:46;13.20;;;2.78;;
70010;SDS011;59543;37.950;-122.338;2023-05-07T10:41:12;10.23;;;2.80;;
70010;SDS011;59543;37.950;-122.338;2023-05-07T10:43:41;9.70;;;3.05;;
70010;SDS011;59543;37.950;-122.338;2023-05-07T10:51:29;15.32;;;3.20;;
70010;SDS011;59543;37.950;-122.338;2023-05-07T10:56:38;15.73;;;3.10;;
70010;SDS011;59543;37.950;-122.338;2023-05-07T11:02:04;15.07;;;3.05;;
70010;SDS011;59543;37.950;-122.338;2023-05-07T11:04:36;20.58;;;3.53;;
70010;SDS011;59543;37.950;-122.338;2023-05-07T11:15:06;12.38;;;3.33;;
70010;SDS011;59543;37.950;-122.338;2023-05-07T11:17:34;14.38;;;3.22;;
70010;SDS011;59543;37.950;-122.338;2023-05-07T11:20:17;8.85;;;3.22;;
70010;SDS011;59543;37.950;-122.338;2023-05-07T11:22:43;12.90;;;3.40;;
70010;SDS011;59543;37.950;-122.338;2023-05-07T11:27:36;14.90;;;3.40;;
70010;SDS011;59543;37.950;-122.338;2023-05-07T11:30:02;12.15;;;3.35;;
70010;SDS011;59543;37.950;-122.338;2023-05-07T11:32:30;8.77;;;3.17;;
70010;SDS011;59543;37.950;-122.338;2023-05-07T11:34:58;12.43;;;3.63;;
70010;SDS011;59543;37.950;-122.338;2023-05-07T11:37:25;13.85;;;3.63;;
70010;SDS011;59543;37.950;-122.338;2023-05-07T11:40:04;11.30;;;3.63;;
70010;SDS011;59543;37.950;-122.338;2023-05-07T11:42:33;12.30;;;3.60;;
70010;SDS011;59543;37.950;-122.338;2023-05-07T11:45:01;14.45;;;3.55;;
70010;SDS011;59543;37.950;-122.338;2023-05-07T11:47:29;12.93;;;3.30;;
70010;SDS011;59543;37.950;-122.338;2023-05-07T11:49:56;10.20;;;2.85;;
70010;SDS011;59543;37.950;-122.338;2023-05-07T11:52:27;13.85;;;3.13;;
70010;SDS011;59543;37.950;-122.338;2023-05-07T11:54:55;13.15;;;3.45;;
70010;SDS011;59543;37.950;-122.338;2023-05-07T11:57:22;11.35;;;3.63;;
70010;SDS011;59543;37.950;-122.338;2023-05-07T11:59:55;11.23;;;3.53;;
70010;SDS011;59543;37.950;-122.338;2023-05-07T12:02:22;16.73;;;4.25;;
70010;SDS011;59543;37.950;-122.338;2023-05-07T12:04:53;14.20;;;4.03;;
70010;SDS011;59543;37.950;-122.338;2023-05-07T12:07:23;14.77;;;3.85;;
70010;SDS011;59543;37.950;-122.338;2023-05-07T12:09:50;15.13;;;3.70;;
70010;SDS011;59543;37.950;-122.338;2023-05-07T12:12:17;16.52;;;3.83;;
70010;SDS011;59543;37.950;-122.338;2023-05-07T12:14:44;18.05;;;3.78;;
70010;SDS011;59543;37.950;-122.338;2023-05-07T12:17:12;15.73;;;3.42;;
70010;SDS011;59543;37.950;-122.338;2023-05-07T12:19:40;17.13;;;3.67;;
70010;SDS011;59543;37.950;-122.338;2023-05-07T12:22:09;20.63;;;3.50;;
70010;SDS011;59543;37.950;-122.338;2023-05-07T12:24:45;17.55;;;3.92;;
70010;SDS011;59543;37.950;-122.338;2023-05-07T12:27:21;12.70;;;3.20;;
70010;SDS011;59543;37.950;-122.338;2023-05-07T12:29:48;16.77;;;4.15;;
70010;SDS011;59543;37.950;-122.338;2023-05-07T12:32:21;15.10;;;3.58;;
70010;SDS011;59543;37.950;-122.338;2023-05-07T12:34:51;10.48;;;3.65;;
70010;SDS011;59543;37.950;-122.338;2023-05-07T12:37:22;11.32;;;3.50;;
70010;SDS011;59543;37.950;-122.338;2023-05-07T12:40:03;14.52;;;4.10;;
70010;SDS011;59543;37.950;-122.338;2023-05-07T12:42:36;13.27;;;4.13;;
70010;SDS011;59543;37.950;-122.338;2023-05-07T12:45:07;10.82;;;3.90;;
70010;SDS011;59543;37.950;-122.338;2023-05-07T12:47:37;14.60;;;4.25;;
70010;SDS011;59543;37.950;-122.338;2023-05-07T12:50:06;18.67;;;4.85;;
70010;SDS011;59543;37.950;-122.338;2023-05-07T12:52:33;12.15;;;4.10;;
70010;SDS011;59543;37.950;-122.338;2023-05-07T12:55:06;13.30;;;4.47;;
70010;SDS011;59543;37.950;-122.338;2023-05-07T12:57:39;13.60;;;4.35;;
70010;SDS011;59543;37.950;-122.338;2023-05-07T13:00:07;12.30;;;3.97;;
70010;SDS011;59543;37.950;-122.338;2023-05-07T13:02:40;17.77;;;4.25;;
70010;SDS011;59543;37.950;-122.338;2023-05-07T13:05:11;14.60;;;4.18;;
70010;SDS011;59543;37.950;-122.338;2023-05-07T13:10:03;11.50;;;3.95;;
70010;SDS011;59543;37.950;-122.338;2023-05-07T13:12:30;12.85;;;4.40;;
70010;SDS011;59543;37.950;-122.338;2023-05-07T13:14:56;20.58;;;4.90;;
70010;SDS011;59543;37.950;-122.338;2023-05-07T13:17:22;13.60;;;4.47;;
70010;SDS011;59543;37.950;-122.338;2023-05-07T13:22:15;13.10;;;4.25;;
70010;SDS011;59543;37.950;-122.338;2023-05-07T13:27:08;13.90;;;4.60;;
70010;SDS011;59543;37.950;-122.338;2023-05-07T13:29:35;14.00;;;4.38;;
70010;SDS011;59543;37.950;-122.338;2023-05-07T13:34:27;19.67;;;5.07;;
70010;SDS011;59543;37.950;-122.338;2023-05-07T13:36:53;20.38;;;5.25;;
70010;SDS011;59543;37.950;-122.338;2023-05-07T13:39:20;16.73;;;4.20;;
70010;SDS011;59543;37.950;-122.338;2023-05-07T13:44:12;67.30;;;4.82;;
70010;SDS011;59543;37.950;-122.338;2023-05-07T13:46:38;16.52;;;4.82;;
70010;SDS011;59543;37.950;-122.338;2023-05-07T13:51:31;18.67;;;4.40;;
70010;SDS011;59543;37.950;-122.338;2023-05-07T13:53:57;16.98;;;4.28;;
70010;SDS011;59543;37.950;-122.338;2023-05-07T13:56:23;20.27;;;4.25;;
70010;SDS011;59543;37.950;-122.338;2023-05-07T13:58:50;12.25;;;3.88;;
70010;SDS011;59543;37.950;-122.338;2023-05-07T14:03:42;16.80;;;4.22;;
70010;SDS011;59543;37.950;-122.338;2023-05-07T14:06:08;16.38;;;5.05;;
70010;SDS011;59543;37.950;-122.338;2023-05-07T14:08:35;15.60;;;5.07;;
70010;SDS011;59543;37.950;-122.338;2023-05-07T14:13:27;14.75;;;4.63;;
70010;SDS011;59543;37.950;-122.338;2023-05-07T14:15:53;11.70;;;4.15;;
70010;SDS011;59543;37.950;-122.338;2023-05-07T14:20:45;12.55;;;4.45;;
70010;SDS011;59543;37.950;-122.338;2023-05-07T14:23:12;13.88;;;4.43;;
70010;SDS011;59543;37.950;-122.338;2023-05-07T14:25:39;16.23;;;4.65;;
70010;SDS011;59543;37.950;-122.338;2023-05-07T14:28:06;11.93;;;4.07;;
70010;SDS011;59543;37.950;-122.338;2023-05-07T14:30:32;13.80;;;3.97;;
70010;SDS011;59543;37.950;-122.338;2023-05-07T14:35:24;26.42;;;4.60;;
70010;SDS011;59543;37.950;-122.338;2023-05-07T14:37:51;14.75;;;5.10;;
70010;SDS011;59543;37.950;-122.338;2023-05-07T14:42:43;16.65;;;4.47;;
70010;SDS011;59543;37.950;-122.338;2023-05-07T14:47:35;13.55;;;3.95;;
70010;SDS011;59543;37.950;-122.338;2023-05-07T14:50:01;13.48;;;3.58;;
70010;SDS011;59543;37.950;-122.338;2023-05-07T14:52:27;11.77;;;4.00;;
70010;SDS011;59543;37.950;-122.338;2023-05-07T14:54:53;15.95;;;4.07;;
70010;SDS011;59543;37.950;-122.338;2023-05-07T14:57:20;14.00;;;3.90;;
70010;SDS011;59543;37.950;-122.338;2023-05-07T14:59:46;8.95;;;2.83;;
70010;SDS011;59543;37.950;-122.338;2023-05-07T15:02:12;7.55;;;3.05;;
70010;SDS011;59543;37.950;-122.338;2023-05-07T15:04:39;14.10;;;3.90;;